createdAt,value
2022-09-05T00:02:29.748Z,21.80
2022-09-05T00:05:48.354Z,21.70
2022-09-05T00:08:59.304Z,21.70
2022-09-05T00:11:58.981Z,21.70
2022-09-05T00:15:17.686Z,21.70
2022-09-05T00:22:52.675Z,21.70
2022-09-05T00:24:26.078Z,21.60
2022-09-05T00:25:31.243Z,21.60
2022-09-05T00:28:37.334Z,21.50
2022-09-05T00:31:54.635Z,21.50
2022-09-05T00:35:26.141Z,21.50
2022-09-05T00:38:22.239Z,21.50
2022-09-05T00:41:13.733Z,21.40
2022-09-05T00:44:01.402Z,21.40
2022-09-05T00:47:07.091Z,21.40
2022-09-05T00:50:00.092Z,21.40
2022-09-05T00:53:07.426Z,21.40
2022-09-05T00:56:41.684Z,21.50
2022-09-05T01:00:08.348Z,22.90
2022-09-05T01:03:31.379Z,21.30
2022-09-05T01:06:37.301Z,21.30
2022-09-05T01:09:28.630Z,21.30
2022-09-05T01:12:32.574Z,21.20
2022-09-05T01:15:33.031Z,21.20
2022-09-05T01:18:47.201Z,21.20
2022-09-05T01:21:53.128Z,21.10
2022-09-05T01:24:54.090Z,21.10
2022-09-05T01:29:13.489Z,21.10
2022-09-05T01:31:41.443Z,21.10
2022-09-05T01:34:48.462Z,21.10
2022-09-05T01:37:49.403Z,21.10
2022-09-05T01:41:17.820Z,21.00
2022-09-05T01:44:23.539Z,20.90
2022-09-05T01:47:29.382Z,20.90
2022-09-05T01:50:25.919Z,20.90
2022-09-05T01:53:26.016Z,20.90
2022-09-05T01:56:32.192Z,20.90
2022-09-05T01:59:37.952Z,20.90
2022-09-05T02:03:04.243Z,20.80
2022-09-05T02:06:20.077Z,20.80
2022-09-05T02:09:28.863Z,20.80
2022-09-05T02:12:27.301Z,20.70
2022-09-05T02:15:25.351Z,20.70
2022-09-05T02:18:52.507Z,20.70
2022-09-05T02:21:57.602Z,20.70
2022-09-05T02:24:47.911Z,20.60
2022-09-05T02:28:06.233Z,20.50
2022-09-05T02:31:20.036Z,20.50
2022-09-05T02:34:42.435Z,20.50
2022-09-05T02:43:39.675Z,20.50
2022-09-05T02:45:12.796Z,20.50
2022-09-05T02:45:21.086Z,20.50
2022-09-05T02:48:06.957Z,20.40
2022-09-05T02:57:28.020Z,20.40
2022-09-05T02:57:41.588Z,20.40
2022-09-05T02:58:09.297Z,20.30
2022-09-05T03:01:09.267Z,20.30
2022-09-05T03:03:54.637Z,20.30
2022-09-05T03:06:46.158Z,20.30
2022-09-05T03:09:52.018Z,20.30
2022-09-05T03:12:43.566Z,20.20
2022-09-05T03:16:02.584Z,20.10
2022-09-05T03:19:46.702Z,20.20
2022-09-05T03:23:09.680Z,20.20
2022-09-05T03:26:26.727Z,20.10
2022-09-05T03:29:12.505Z,20.10
2022-09-05T03:32:12.909Z,20.10
2022-09-05T03:35:49.207Z,20.00
2022-09-05T03:38:59.426Z,19.90
2022-09-05T03:42:00.144Z,19.90
2022-09-05T03:45:04.757Z,20.00
2022-09-05T03:48:27.871Z,20.20
2022-09-05T03:57:08.083Z,20.40
2022-09-05T03:57:14.835Z,20.60
2022-09-05T03:58:57.228Z,20.60
2022-09-05T04:04:37.981Z,20.70
2022-09-05T04:08:09.580Z,20.80
2022-09-05T04:08:37.016Z,20.80
2022-09-05T04:11:40.607Z,20.80
2022-09-05T04:14:32.244Z,20.80
2022-09-05T04:17:47.036Z,20.90
2022-09-05T04:20:44.026Z,20.90
2022-09-05T04:23:42.264Z,20.90
2022-09-05T04:26:49.132Z,20.90
2022-09-05T04:30:39.902Z,20.90
2022-09-05T04:33:36.651Z,20.80
2022-09-05T04:36:33.511Z,20.90
2022-09-05T04:39:19.512Z,20.90
2022-09-05T04:42:04.864Z,20.90
2022-09-05T04:45:12.576Z,21.00
2022-09-05T04:48:05.436Z,21.00
2022-09-05T04:51:23.943Z,20.90
2022-09-05T04:54:40.152Z,21.00
2022-09-05T04:57:35.120Z,21.00
2022-09-05T05:06:05.740Z,21.90
2022-09-05T05:06:17.541Z,21.00
2022-09-05T05:07:10.129Z,20.80
2022-09-05T05:10:41.816Z,20.90
2022-09-05T05:18:00.363Z,20.80
2022-09-05T05:18:06.877Z,20.70
2022-09-05T05:19:53.478Z,20.70
2022-09-05T05:23:20.114Z,20.80
2022-09-05T05:26:12.778Z,20.90
2022-09-05T05:29:25.777Z,21.00
2022-09-05T05:32:45.804Z,21.00
2022-09-05T05:35:39.825Z,21.00
2022-09-05T05:38:53.550Z,21.00
2022-09-05T05:41:39.204Z,21.10
2022-09-05T05:44:28.944Z,21.10
2022-09-05T05:47:32.345Z,21.20
2022-09-05T05:50:55.806Z,21.20
2022-09-05T05:54:21.476Z,21.30
2022-09-05T05:57:25.302Z,21.30
2022-09-05T06:00:52.023Z,21.30
2022-09-05T06:04:08.686Z,21.50
2022-09-05T06:07:26.133Z,21.50
2022-09-05T06:14:51.253Z,21.60
2022-09-05T06:15:04.903Z,22.00
2022-09-05T06:16:58.935Z,21.70
2022-09-05T06:22:07.084Z,21.80
2022-09-05T06:24:05.626Z,21.80
2022-09-05T06:27:03.288Z,21.90
2022-09-05T06:30:09.458Z,22.00
2022-09-05T06:33:03.927Z,22.00
2022-09-05T06:35:50.729Z,22.10
2022-09-05T06:38:44.528Z,22.20
2022-09-05T06:42:15.081Z,22.20
2022-09-05T06:45:33.098Z,22.30
2022-09-05T06:48:45.951Z,22.40
2022-09-05T06:51:45.272Z,22.40
2022-09-05T06:54:59.458Z,22.50
2022-09-05T06:58:11.635Z,22.40
2022-09-05T07:00:59.598Z,22.30
2022-09-05T07:04:33.365Z,22.30
2022-09-05T07:07:31.794Z,22.30
2022-09-05T07:10:38.298Z,22.40
2022-09-05T07:13:30.702Z,22.40
2022-09-05T07:16:38.911Z,22.40
2022-09-05T07:19:35.527Z,22.50
2022-09-05T07:22:49.291Z,22.60
2022-09-05T07:25:37.434Z,22.60
2022-09-05T07:28:28.461Z,22.60
2022-09-05T07:31:27.500Z,22.60
2022-09-05T07:34:31.587Z,22.60
2022-09-05T07:37:23.756Z,22.80
2022-09-05T07:40:25.065Z,22.80
2022-09-05T07:43:28.023Z,22.80
2022-09-05T07:46:23.832Z,22.90
2022-09-05T07:49:14.670Z,23.00
2022-09-05T07:56:49.749Z,23.10
2022-09-05T07:56:55.836Z,23.00
2022-09-05T07:58:50.469Z,23.30
2022-09-05T08:01:40.924Z,23.30
2022-09-05T08:04:32.179Z,23.40
2022-09-05T08:07:49.756Z,23.40
2022-09-05T08:11:03.023Z,23.50
2022-09-05T08:13:42.577Z,23.50
2022-09-05T08:16:34.855Z,23.60
2022-09-05T08:19:29.732Z,23.60
2022-09-05T08:22:21.661Z,23.70
2022-09-05T08:25:36.294Z,23.70
2022-09-05T08:28:45.306Z,23.80
2022-09-05T08:32:03.781Z,23.80
2022-09-05T08:35:03.887Z,23.90
2022-09-05T08:37:52.217Z,23.90
2022-09-05T08:40:46.994Z,24.00
2022-09-05T08:46:36.459Z,24.00
2022-09-05T08:47:10.330Z,24.10
2022-09-05T08:49:55.881Z,24.10
2022-09-05T08:53:41.375Z,24.20
2022-09-05T08:56:47.849Z,24.20
2022-09-05T09:00:18.991Z,24.20
2022-09-05T09:02:50.453Z,24.30
2022-09-05T09:06:14.161Z,24.40
2022-09-05T09:09:13.543Z,24.50
2022-09-05T09:12:33.506Z,24.50
2022-09-05T09:15:38.703Z,24.60
2022-09-05T09:18:42.014Z,24.60
2022-09-05T09:21:43.096Z,24.60
2022-09-05T09:25:14.864Z,24.70
2022-09-05T09:28:48.274Z,24.80
2022-09-05T09:31:30.024Z,24.80
2022-09-05T09:34:25.327Z,25.00
2022-09-05T09:37:49.499Z,25.00
2022-09-05T09:41:00.558Z,25.10
2022-09-05T09:44:20.254Z,25.10
2022-09-05T09:47:14.057Z,25.20
2022-09-05T09:50:08.442Z,25.20
2022-09-05T09:53:15.040Z,25.20
2022-09-05T09:56:48.177Z,25.20
2022-09-05T10:00:11.884Z,25.20
2022-09-05T10:06:57.715Z,25.20
2022-09-05T10:10:47.957Z,25.30
2022-09-05T10:10:53.337Z,25.30
2022-09-05T10:13:41.778Z,25.30
2022-09-05T10:16:55.119Z,25.40
2022-09-05T10:20:10.543Z,25.40
2022-09-05T10:23:44.540Z,25.40
2022-09-05T10:27:01.191Z,25.50
2022-09-05T10:30:19.845Z,25.50
2022-09-05T10:35:15.252Z,25.60
2022-09-05T10:37:05.380Z,25.50
2022-09-05T10:39:51.606Z,25.50
2022-09-05T10:42:58.127Z,25.60
2022-09-05T10:45:56.788Z,25.70
2022-09-05T10:48:53.650Z,25.70
2022-09-05T10:51:51.848Z,25.70
2022-09-05T10:55:14.000Z,25.70
2022-09-05T10:58:10.023Z,25.70
2022-09-05T11:02:26.376Z,25.70
2022-09-05T11:05:00.604Z,25.60
2022-09-05T11:08:08.192Z,25.70
2022-09-05T11:11:17.154Z,25.70
2022-09-05T11:14:42.117Z,25.60
2022-09-05T11:17:45.121Z,25.60
2022-09-05T11:20:42.783Z,25.80
2022-09-05T11:23:39.850Z,25.90
2022-09-05T11:26:35.961Z,26.00
2022-09-05T11:29:48.033Z,26.10
2022-09-05T11:38:26.836Z,26.20
2022-09-05T11:39:56.263Z,26.30
2022-09-05T11:40:07.350Z,26.30
2022-09-05T11:42:41.574Z,26.20
2022-09-05T11:45:49.245Z,26.20
2022-09-05T11:49:04.139Z,26.20
2022-09-05T11:51:58.813Z,26.20
2022-09-05T11:54:54.934Z,26.30
2022-09-05T11:57:42.194Z,26.30
2022-09-05T12:00:38.138Z,26.30
2022-09-05T12:07:27.115Z,26.30
2022-09-05T12:10:45.754Z,26.30
2022-09-05T12:14:17.079Z,26.30
2022-09-05T12:17:42.204Z,26.40
2022-09-05T12:21:02.882Z,26.30
2022-09-05T12:25:15.511Z,26.30
2022-09-05T12:27:39.697Z,26.30
2022-09-05T12:30:37.961Z,26.30
2022-09-05T12:36:01.618Z,26.40
2022-09-05T12:40:44.736Z,26.40
2022-09-05T12:41:35.460Z,26.30
2022-09-05T12:41:36.240Z,26.40
2022-09-05T12:44:45.100Z,26.60
2022-09-05T12:47:18.961Z,26.80
2022-09-05T12:50:17.004Z,27.00
2022-09-05T12:53:13.963Z,27.00
2022-09-05T12:57:13.904Z,27.00
2022-09-05T13:02:55.444Z,26.90
2022-09-05T13:03:01.951Z,26.90
2022-09-05T13:06:08.749Z,26.90
2022-09-05T13:09:05.455Z,26.80
2022-09-05T13:14:58.510Z,26.70
2022-09-05T13:15:37.280Z,26.80
2022-09-05T13:18:31.224Z,27.00
2022-09-05T13:21:26.012Z,27.20
2022-09-05T13:24:27.468Z,27.40
2022-09-05T13:27:23.500Z,27.60
2022-09-05T13:31:13.702Z,27.90
2022-09-05T13:38:15.896Z,28.10
2022-09-05T13:38:16.166Z,28.20
2022-09-05T13:40:23.743Z,28.20
2022-09-05T13:43:12.786Z,28.20
2022-09-05T13:46:03.572Z,28.30
2022-09-05T13:52:34.604Z,28.40
2022-09-05T13:55:53.996Z,28.50
2022-09-05T13:58:56.570Z,28.50
2022-09-05T14:02:27.594Z,28.70
2022-09-05T14:05:31.815Z,28.80
2022-09-05T14:08:33.704Z,28.90
2022-09-05T14:11:58.527Z,29.00
2022-09-05T14:18:02.365Z,28.80
2022-09-05T14:21:15.865Z,28.50
2022-09-05T14:24:12.993Z,28.20
2022-09-05T14:27:00.445Z,28.00
2022-09-05T14:29:55.020Z,27.90
2022-09-05T14:37:49.992Z,27.60
2022-09-05T14:37:55.739Z,27.70
2022-09-05T14:39:53.010Z,27.50
2022-09-05T14:42:53.712Z,27.50
2022-09-05T14:46:00.261Z,27.50
2022-09-05T14:49:10.860Z,27.70
2022-09-05T14:51:58.457Z,27.90
2022-09-05T15:02:41.177Z,27.80
2022-09-05T15:02:50.347Z,27.70
2022-09-05T15:04:40.967Z,27.70
2022-09-05T15:07:31.817Z,27.70
2022-09-05T15:12:16.258Z,27.80
2022-09-05T15:13:26.045Z,27.90
2022-09-05T15:16:15.379Z,28.00
2022-09-05T15:19:01.918Z,28.00
2022-09-05T15:21:47.494Z,28.00
2022-09-05T15:24:33.021Z,28.10
2022-09-05T15:27:19.098Z,28.30
2022-09-05T15:30:06.550Z,28.50
2022-09-05T15:33:29.794Z,28.50
2022-09-05T15:36:32.066Z,28.70
2022-09-05T15:39:23.224Z,28.80
2022-09-05T15:42:18.624Z,28.80
2022-09-05T15:45:11.696Z,28.80
2022-09-05T15:48:24.225Z,28.80
2022-09-05T15:51:19.068Z,28.70
2022-09-05T15:54:05.330Z,28.80
2022-09-05T15:56:57.374Z,28.80
2022-09-05T15:59:49.005Z,28.80
2022-09-05T16:02:47.171Z,28.30
2022-09-05T16:10:34.103Z,28.80
2022-09-05T16:10:40.247Z,28.80
2022-09-05T16:12:38.534Z,28.80
2022-09-05T16:19:58.186Z,28.80
2022-09-05T16:23:20.946Z,28.70
2022-09-05T16:23:33.826Z,28.60
2022-09-05T16:25:07.790Z,28.70
2022-09-05T16:28:11.804Z,28.80
2022-09-05T16:31:23.221Z,28.80
2022-09-05T16:34:42.778Z,28.80
2022-09-05T16:37:42.001Z,28.80
2022-09-05T16:40:42.074Z,28.80
2022-09-05T16:43:33.263Z,28.70
2022-09-05T16:46:24.265Z,28.60
2022-09-05T16:49:15.932Z,28.50
2022-09-05T16:52:07.157Z,28.40
2022-09-05T16:55:03.438Z,28.30
2022-09-05T16:58:19.454Z,28.30
2022-09-05T17:01:10.883Z,28.20
2022-09-05T17:04:08.366Z,28.10
2022-09-05T17:07:07.483Z,27.90
2022-09-05T17:09:53.570Z,27.90
2022-09-05T17:12:41.296Z,27.90
2022-09-05T17:15:35.476Z,27.60
2022-09-05T17:18:26.849Z,27.80
2022-09-05T17:21:41.834Z,27.80
2022-09-05T17:29:18.475Z,27.80
2022-09-05T17:29:25.564Z,27.80
2022-09-05T17:31:46.157Z,27.80
2022-09-05T17:33:45.729Z,27.80
2022-09-05T17:36:41.242Z,27.80
2022-09-05T17:40:05.474Z,27.80
2022-09-05T17:43:03.139Z,27.80
2022-09-05T17:46:11.811Z,27.80
2022-09-05T17:49:18.785Z,27.80
2022-09-05T17:52:18.870Z,27.70
2022-09-05T17:55:12.899Z,27.70
2022-09-05T17:58:24.020Z,27.70
2022-09-05T18:01:28.930Z,27.70
2022-09-05T18:04:47.910Z,27.70
2022-09-05T18:07:34.749Z,27.60
2022-09-05T18:10:27.457Z,27.60
2022-09-05T18:16:43.674Z,27.50
2022-09-05T18:20:06.546Z,27.50
2022-09-05T18:23:37.644Z,27.50
2022-09-05T18:26:23.334Z,27.50
2022-09-05T18:29:17.152Z,27.50
2022-09-05T18:32:11.009Z,27.50
2022-09-05T18:35:36.239Z,27.50
2022-09-05T18:38:50.890Z,27.50
2022-09-05T18:41:38.783Z,27.50
2022-09-05T18:44:29.457Z,27.50
2022-09-05T18:47:53.048Z,27.60
2022-09-05T18:50:46.451Z,27.60
2022-09-05T18:53:34.838Z,27.50
2022-09-05T18:57:11.927Z,27.50
2022-09-05T19:00:06.417Z,27.40
2022-09-05T19:03:01.302Z,27.40
2022-09-05T19:05:55.365Z,27.40
2022-09-05T19:09:14.206Z,27.30
2022-09-05T19:12:34.888Z,27.30
2022-09-05T19:15:34.449Z,27.20
2022-09-05T19:18:27.336Z,27.10
2022-09-05T19:21:22.368Z,27.10
2022-09-05T19:24:20.774Z,27.00
2022-09-05T19:28:22.041Z,26.90
2022-09-05T19:36:57.370Z,26.90
2022-09-05T19:37:03.119Z,26.90
2022-09-05T19:37:30.186Z,26.90
2022-09-05T19:47:29.339Z,27.70
2022-09-05T19:47:31.255Z,26.70
2022-09-05T19:47:44.915Z,26.70
2022-09-05T19:49:38.262Z,26.70
2022-09-05T19:52:23.761Z,26.70
2022-09-05T19:55:33.320Z,26.70
2022-09-05T19:58:22.226Z,26.70
2022-09-05T20:01:15.368Z,26.70
2022-09-05T20:04:01.141Z,26.60
2022-09-05T20:06:49.185Z,26.60
2022-09-05T20:09:43.530Z,26.60
2022-09-05T20:12:38.161Z,26.60
2022-09-05T20:15:36.140Z,26.50
2022-09-05T20:18:33.913Z,26.40
2022-09-05T20:21:29.766Z,26.40
2022-09-05T20:24:16.585Z,26.40
2022-09-05T20:27:02.328Z,26.30
2022-09-05T20:30:00.119Z,26.30
2022-09-05T20:32:54.017Z,26.20
2022-09-05T20:40:27.774Z,26.10
2022-09-05T20:43:11.160Z,26.20
2022-09-05T20:43:24.419Z,26.20
2022-09-05T20:45:08.433Z,26.20
2022-09-05T20:52:23.113Z,26.10
2022-09-05T20:54:14.691Z,26.10
2022-09-05T20:54:31.620Z,26.10
2022-09-05T20:57:18.786Z,26.10
2022-09-05T21:00:24.893Z,26.10
2022-09-05T21:03:15.869Z,26.00
2022-09-05T21:06:28.671Z,26.00
2022-09-05T21:09:24.664Z,26.00
2022-09-05T21:12:14.954Z,25.90
2022-09-05T21:15:52.308Z,25.90
2022-09-05T21:18:33.518Z,25.80
2022-09-05T21:21:30.028Z,25.80
2022-09-05T21:24:23.826Z,25.80
2022-09-05T21:27:27.923Z,25.80
2022-09-05T21:30:24.234Z,25.70
2022-09-05T21:33:19.773Z,25.70
2022-09-05T21:36:07.350Z,25.60
2022-09-05T21:38:53.034Z,25.60
2022-09-05T21:41:38.639Z,25.50
2022-09-05T21:47:38.388Z,25.50
2022-09-05T21:47:39.162Z,25.50
2022-09-05T21:50:45.270Z,25.40
2022-09-05T21:53:55.130Z,25.40
2022-09-05T21:59:20.062Z,25.30
2022-09-05T21:59:57.832Z,25.30
2022-09-05T22:02:53.393Z,25.20
2022-09-05T22:05:39.273Z,25.20
2022-09-05T22:08:24.967Z,25.20
2022-09-05T22:11:12.564Z,25.20
2022-09-05T22:14:00.858Z,25.10
2022-09-05T22:16:50.380Z,25.10
2022-09-05T22:19:37.067Z,25.10
2022-09-05T22:22:24.413Z,25.00
2022-09-05T22:25:19.594Z,25.00
2022-09-05T22:28:17.349Z,25.00
2022-09-05T22:31:07.825Z,24.90
2022-09-05T22:33:53.877Z,24.90
2022-09-05T22:36:39.486Z,24.90
2022-09-05T22:39:36.435Z,24.80
2022-09-05T22:42:22.977Z,24.80
2022-09-05T22:45:09.061Z,24.80
2022-09-05T22:47:54.879Z,24.80
2022-09-05T22:50:42.375Z,24.80
2022-09-05T22:53:28.289Z,24.80
2022-09-05T22:56:13.944Z,24.70
2022-09-05T22:58:59.783Z,24.70
2022-09-05T23:01:45.429Z,24.60
2022-09-05T23:04:31.108Z,24.60
2022-09-05T23:07:16.886Z,24.60
2022-09-05T23:10:04.082Z,24.60
2022-09-05T23:12:49.980Z,24.60
2022-09-05T23:15:36.987Z,24.60
2022-09-05T23:18:22.636Z,24.50
2022-09-05T23:21:11.754Z,23.80
2022-09-05T23:23:57.152Z,24.50
2022-09-05T23:26:42.631Z,24.50
2022-09-05T23:29:28.051Z,24.50
2022-09-05T23:32:13.517Z,24.50
2022-09-05T23:34:59.197Z,24.50
2022-09-05T23:37:46.132Z,24.40
2022-09-05T23:40:31.556Z,24.40
2022-09-05T23:43:17.169Z,24.40
2022-09-05T23:46:03.256Z,24.40
2022-09-05T23:48:48.665Z,24.40
2022-09-05T23:51:34.325Z,24.30
2022-09-05T23:54:20.233Z,24.40
2022-09-05T23:57:06.034Z,24.40
2022-09-05T23:59:52.608Z,24.40
